createdAt,value
2018-07-15T00:00:02.149Z,5.70
2018-07-15T00:02:30.574Z,4.30
2018-07-15T00:04:58.948Z,5.13
2018-07-15T00:07:27.625Z,5.23
2018-07-15T00:09:55.965Z,5.03
2018-07-15T00:12:24.379Z,6.07
2018-07-15T00:14:52.697Z,3.90
2018-07-15T00:17:21.053Z,4.53
2018-07-15T00:19:49.456Z,4.23
2018-07-15T00:22:17.853Z,4.70
2018-07-15T00:24:47.002Z,4.23
2018-07-15T00:27:15.351Z,5.87
2018-07-15T00:29:43.706Z,4.33
2018-07-15T00:32:12.100Z,4.10
2018-07-15T00:34:40.485Z,4.10
2018-07-15T00:37:08.826Z,4.97
2018-07-15T00:39:37.244Z,4.03
2018-07-15T00:42:05.642Z,4.93
2018-07-15T00:44:34.062Z,4.10
2018-07-15T00:47:02.432Z,5.10
2018-07-15T00:49:30.773Z,5.60
2018-07-15T00:54:21.291Z,4.37
2018-07-15T00:56:49.791Z,5.57
2018-07-15T00:59:18.522Z,5.03
2018-07-15T01:01:46.867Z,4.73
2018-07-15T01:04:15.194Z,5.77
2018-07-15T01:06:43.600Z,5.37
2018-07-15T01:09:12.185Z,3.90
2018-07-15T01:11:40.597Z,5.07
2018-07-15T01:14:09.556Z,3.93
2018-07-15T01:16:39.164Z,3.80
2018-07-15T01:19:07.954Z,5.47
2018-07-15T01:21:36.586Z,4.43
2018-07-15T01:24:05.163Z,4.60
2018-07-15T01:26:33.512Z,5.57
2018-07-15T01:29:01.857Z,4.43
2018-07-15T01:31:30.305Z,4.70
2018-07-15T01:33:58.960Z,4.23
2018-07-15T01:36:28.022Z,4.47
2018-07-15T01:38:56.334Z,6.10
2018-07-15T01:41:24.705Z,4.53
2018-07-15T01:43:53.122Z,4.33
2018-07-15T01:46:22.111Z,4.47
2018-07-15T01:48:50.747Z,4.40
2018-07-15T01:51:19.140Z,4.40
2018-07-15T01:53:47.611Z,5.03
2018-07-15T01:56:15.944Z,4.07
2018-07-15T01:58:44.360Z,8.87
2018-07-15T02:01:12.844Z,4.33
2018-07-15T02:03:41.279Z,4.30
2018-07-15T02:06:09.665Z,5.03
2018-07-15T02:08:38.083Z,4.57
2018-07-15T02:11:06.618Z,7.60
2018-07-15T02:13:35.003Z,5.83
2018-07-15T02:16:03.378Z,4.37
2018-07-15T02:27:28.498Z,5.40
2018-07-15T02:29:56.812Z,4.30
2018-07-15T02:32:25.600Z,4.03
2018-07-15T02:34:54.204Z,5.40
2018-07-15T02:37:23.240Z,7.80
2018-07-15T02:39:52.149Z,4.40
2018-07-15T02:42:20.786Z,6.30
2018-07-15T02:44:49.155Z,5.07
2018-07-15T02:47:17.277Z,4.37
2018-07-15T02:49:45.660Z,4.53
2018-07-15T02:52:13.976Z,4.97
2018-07-15T02:54:42.362Z,5.80
2018-07-15T02:57:10.738Z,4.53
2018-07-15T02:59:39.157Z,4.30
2018-07-15T03:02:07.613Z,4.50
2018-07-15T03:04:36.252Z,4.27
2018-07-15T03:07:04.368Z,4.53
2018-07-15T03:09:32.746Z,5.20
2018-07-15T03:12:01.448Z,5.27
2018-07-15T03:14:29.804Z,4.53
2018-07-15T03:16:58.166Z,4.90
2018-07-15T03:19:26.551Z,5.33
2018-07-15T03:21:55.213Z,6.83
2018-07-15T03:24:23.704Z,7.87
2018-07-15T03:26:52.073Z,6.23
2018-07-15T03:29:20.474Z,6.93
2018-07-15T03:31:48.894Z,5.67
2018-07-15T03:34:17.304Z,5.87
2018-07-15T03:36:45.701Z,6.00
2018-07-15T03:39:14.061Z,6.07
2018-07-15T03:41:42.545Z,5.43
2018-07-15T03:44:10.955Z,5.60
2018-07-15T03:46:39.317Z,5.43
2018-07-15T03:49:07.678Z,6.27
2018-07-15T03:51:36.040Z,6.17
2018-07-15T03:54:04.406Z,6.80
2018-07-15T03:56:32.760Z,6.47
2018-07-15T03:59:01.111Z,5.83
2018-07-15T04:01:29.588Z,5.50
2018-07-15T04:03:57.942Z,5.90
2018-07-15T04:06:26.320Z,5.37
2018-07-15T04:08:54.882Z,5.87
2018-07-15T04:11:23.472Z,6.80
2018-07-15T04:13:51.957Z,7.17
2018-07-15T04:16:20.323Z,6.20
2018-07-15T04:18:48.686Z,6.20
2018-07-15T04:21:17.105Z,6.23
2018-07-15T04:23:45.568Z,6.27
2018-07-15T04:26:14.004Z,6.17
2018-07-15T04:28:42.362Z,6.63
2018-07-15T04:31:11.072Z,6.27
2018-07-15T04:33:39.390Z,6.53
2018-07-15T04:36:07.787Z,7.57
2018-07-15T04:38:36.181Z,6.63
2018-07-15T04:41:04.552Z,8.60
2018-07-15T04:43:32.979Z,5.30
2018-07-15T04:46:01.385Z,6.23
2018-07-15T04:48:30.110Z,7.23
2018-07-15T04:50:59.126Z,7.20
2018-07-15T04:53:27.523Z,7.73
2018-07-15T04:55:55.945Z,7.10
2018-07-15T04:58:24.275Z,7.30
2018-07-15T05:00:52.648Z,7.73
2018-07-15T05:03:21.050Z,7.43
2018-07-15T05:05:49.379Z,6.60
2018-07-15T05:08:17.434Z,8.57
2018-07-15T05:10:45.784Z,7.00
2018-07-15T05:13:14.445Z,7.57
2018-07-15T05:15:42.867Z,7.30
2018-07-15T05:18:11.269Z,7.93
2018-07-15T05:20:39.709Z,6.97
2018-07-15T05:23:08.722Z,7.23
2018-07-15T05:25:37.134Z,7.93
2018-07-15T05:28:05.621Z,7.87
2018-07-15T05:30:34.036Z,8.67
2018-07-15T05:33:02.940Z,8.10
2018-07-15T05:35:31.397Z,7.73
2018-07-15T05:37:59.815Z,8.43
2018-07-15T05:40:28.260Z,7.70
2018-07-15T05:42:56.675Z,7.90
2018-07-15T05:45:25.097Z,7.83
2018-07-15T05:47:53.558Z,7.60
2018-07-15T05:50:21.988Z,8.00
2018-07-15T05:52:50.409Z,9.90
2018-07-15T05:55:18.851Z,8.40
2018-07-15T05:57:47.227Z,7.93
2018-07-15T06:00:15.656Z,10.17
2018-07-15T06:02:44.084Z,8.47
2018-07-15T06:05:12.762Z,8.03
2018-07-15T06:07:41.146Z,8.93
2018-07-15T06:10:09.557Z,8.23
2018-07-15T06:12:38.313Z,8.47
2018-07-15T06:15:07.035Z,11.13
2018-07-15T06:17:35.457Z,8.77
2018-07-15T06:20:03.889Z,9.93
2018-07-15T06:22:32.321Z,9.90
2018-07-15T06:25:00.681Z,9.43
2018-07-15T06:27:29.026Z,9.93
2018-07-15T06:29:57.471Z,9.27
2018-07-15T06:32:25.869Z,10.60
2018-07-15T06:34:54.283Z,9.37
2018-07-15T06:37:22.687Z,10.53
2018-07-15T06:39:51.052Z,12.60
2018-07-15T06:42:19.442Z,11.20
2018-07-15T06:44:47.850Z,10.37
2018-07-15T06:47:16.276Z,9.83
2018-07-15T06:49:45.036Z,10.27
2018-07-15T06:52:13.461Z,9.27
2018-07-15T06:54:42.968Z,9.93
2018-07-15T06:57:11.316Z,11.33
2018-07-15T06:59:39.657Z,10.50
2018-07-15T07:02:07.997Z,10.03
2018-07-15T07:04:36.362Z,15.63
2018-07-15T07:07:04.787Z,14.50
2018-07-15T07:09:33.489Z,11.60
2018-07-15T07:12:01.866Z,10.63
2018-07-15T07:14:30.231Z,10.73
2018-07-15T07:16:58.619Z,10.50
2018-07-15T07:19:27.044Z,11.33
2018-07-15T07:21:55.399Z,10.80
2018-07-15T07:24:24.012Z,10.97
2018-07-15T07:26:52.379Z,11.00
2018-07-15T07:29:20.789Z,11.63
2018-07-15T07:31:49.157Z,10.60
2018-07-15T07:34:17.509Z,10.93
2018-07-15T07:36:45.953Z,10.23
2018-07-15T07:39:14.058Z,9.97
2018-07-15T07:41:42.442Z,10.20
2018-07-15T07:44:10.834Z,10.77
2018-07-15T07:46:39.198Z,8.73
2018-07-15T07:49:07.639Z,9.60
2018-07-15T07:51:36.045Z,8.47
2018-07-15T07:54:04.682Z,10.03
2018-07-15T07:56:33.027Z,11.87
2018-07-15T07:59:01.404Z,8.20
2018-07-15T08:01:29.778Z,10.07
2018-07-15T08:03:58.108Z,9.10
2018-07-15T08:06:26.538Z,8.83
2018-07-15T08:08:54.939Z,10.20
2018-07-15T08:11:23.080Z,11.93
2018-07-15T08:13:51.582Z,7.80
2018-07-15T08:16:19.920Z,7.00
2018-07-15T08:18:48.392Z,4.87
2018-07-15T08:21:16.854Z,7.73
2018-07-15T08:23:45.239Z,6.70
2018-07-15T08:26:13.689Z,6.17
2018-07-15T08:28:42.071Z,6.77
2018-07-15T08:31:14.773Z,6.40
2018-07-15T08:33:43.165Z,6.53
2018-07-15T08:36:11.977Z,8.33
2018-07-15T08:38:40.708Z,9.30
2018-07-15T08:41:09.096Z,5.93
2018-07-15T08:43:37.857Z,6.17
2018-07-15T08:46:06.794Z,5.63
2018-07-15T08:48:35.089Z,6.07
2018-07-15T08:51:03.912Z,5.33
2018-07-15T08:53:32.301Z,6.53
2018-07-15T08:56:00.701Z,5.10
2018-07-15T08:58:29.185Z,6.60
2018-07-15T09:00:57.733Z,5.37
2018-07-15T09:03:26.313Z,3.83
2018-07-15T09:05:54.628Z,4.23
2018-07-15T09:08:23.137Z,2.93
2018-07-15T09:10:52.260Z,6.30
2018-07-15T09:13:21.250Z,3.03
2018-07-15T09:15:50.109Z,3.90
2018-07-15T09:18:18.519Z,3.50
2018-07-15T09:20:46.977Z,8.53
2018-07-15T09:23:15.344Z,3.70
2018-07-15T09:25:43.669Z,3.40
2018-07-15T09:28:12.008Z,3.80
2018-07-15T09:30:40.048Z,4.07
2018-07-15T09:33:08.723Z,3.23
2018-07-15T09:35:37.118Z,5.70
2018-07-15T09:38:05.795Z,3.27
2018-07-15T09:40:34.212Z,2.47
2018-07-15T09:43:02.636Z,2.67
2018-07-15T09:45:34.244Z,3.80
2018-07-15T09:48:02.704Z,3.10
2018-07-15T09:50:31.103Z,3.20
2018-07-15T09:52:59.498Z,2.73
2018-07-15T09:55:28.176Z,2.50
2018-07-15T09:57:56.545Z,2.77
2018-07-15T10:00:30.377Z,2.27
2018-07-15T10:02:58.852Z,3.70
2018-07-15T10:05:27.596Z,3.53
2018-07-15T10:07:56.372Z,2.83
2018-07-15T10:10:24.811Z,4.33
2018-07-15T10:12:53.159Z,3.53
2018-07-15T10:15:21.481Z,2.80
2018-07-15T10:17:50.703Z,2.00
2018-07-15T10:20:19.085Z,2.00
2018-07-15T10:22:47.486Z,1.83
2018-07-15T10:25:15.951Z,3.20
2018-07-15T10:29:13.760Z,2.93
2018-07-15T10:31:42.113Z,4.47
2018-07-15T10:34:10.487Z,2.87
2018-07-15T10:36:39.018Z,2.00
2018-07-15T10:39:07.856Z,1.73
2018-07-15T10:41:36.264Z,1.97
2018-07-15T10:44:04.921Z,2.33
2018-07-15T10:46:33.363Z,3.07
2018-07-15T10:49:01.456Z,2.40
2018-07-15T10:51:30.136Z,2.10
2018-07-15T10:53:58.528Z,3.83
2018-07-15T10:56:27.103Z,5.07
2018-07-15T10:58:55.835Z,3.03
2018-07-15T11:01:24.503Z,3.97
2018-07-15T11:03:52.865Z,3.53
2018-07-15T11:06:21.846Z,3.00
2018-07-15T11:08:50.248Z,3.90
2018-07-15T11:11:18.380Z,3.27
2018-07-15T11:13:46.778Z,3.53
2018-07-15T11:16:16.253Z,3.00
2018-07-15T11:18:44.914Z,2.30
2018-07-15T11:21:13.506Z,7.10
2018-07-15T11:23:41.854Z,2.33
2018-07-15T11:26:10.286Z,2.10
2018-07-15T11:28:38.728Z,5.10
2018-07-15T11:31:08.013Z,2.43
2018-07-15T11:33:36.219Z,3.33
2018-07-15T11:36:04.681Z,3.13
2018-07-15T11:38:33.103Z,3.80
2018-07-15T11:41:01.572Z,3.73
2018-07-15T11:43:30.126Z,2.93
2018-07-15T11:45:58.456Z,2.23
2018-07-15T11:48:26.898Z,2.77
2018-07-15T11:50:55.350Z,2.50
2018-07-15T11:53:23.719Z,2.63
2018-07-15T11:55:52.077Z,3.20
2018-07-15T11:58:20.493Z,2.97
2018-07-15T12:00:48.895Z,2.20
2018-07-15T12:03:17.762Z,2.10
2018-07-15T12:05:46.109Z,4.27
2018-07-15T12:08:14.577Z,2.30
2018-07-15T12:10:42.994Z,2.17
2018-07-15T12:13:11.663Z,2.47
2018-07-15T12:15:40.729Z,2.07
2018-07-15T12:18:09.227Z,2.80
2018-07-15T12:20:37.936Z,3.40
2018-07-15T12:23:06.368Z,2.90
2018-07-15T12:25:34.833Z,2.73
2018-07-15T12:28:03.540Z,3.57
2018-07-15T12:30:32.368Z,2.33
2018-07-15T12:33:01.502Z,2.30
2018-07-15T12:35:29.830Z,2.53
2018-07-15T12:37:58.167Z,4.93
2018-07-15T12:40:26.974Z,1.93
2018-07-15T12:42:55.711Z,2.10
2018-07-15T12:45:24.093Z,2.00
2018-07-15T12:47:52.526Z,1.67
2018-07-15T12:50:21.049Z,2.13
2018-07-15T12:52:49.406Z,2.37
2018-07-15T12:55:17.778Z,2.10
2018-07-15T12:57:46.180Z,4.37
2018-07-15T13:00:14.618Z,2.40
2018-07-15T13:02:43.116Z,2.13
2018-07-15T13:05:11.631Z,2.63
2018-07-15T13:07:39.711Z,2.20
2018-07-15T13:10:08.342Z,2.10
2018-07-15T13:12:36.744Z,1.77
2018-07-15T13:15:05.470Z,1.77
2018-07-15T13:17:33.943Z,2.00
2018-07-15T13:20:02.315Z,2.00
2018-07-15T13:22:30.687Z,4.20
2018-07-15T13:24:59.088Z,3.20
2018-07-15T13:27:27.724Z,3.77
2018-07-15T13:29:56.297Z,2.07
2018-07-15T13:32:24.676Z,4.03
2018-07-15T13:34:53.005Z,5.07
2018-07-15T13:37:21.348Z,1.70
2018-07-15T13:39:49.805Z,1.93
2018-07-15T13:42:18.195Z,2.40
2018-07-15T13:44:46.605Z,1.93
2018-07-15T13:47:14.940Z,1.90
2018-07-15T13:49:43.260Z,1.93
2018-07-15T13:52:11.652Z,2.00
2018-07-15T13:54:39.993Z,2.10
2018-07-15T13:57:08.647Z,1.90
2018-07-15T13:59:37.055Z,1.73
2018-07-15T14:02:05.446Z,2.30
2018-07-15T14:04:33.824Z,2.10
2018-07-15T14:07:02.219Z,2.17
2018-07-15T14:09:30.584Z,1.77
2018-07-15T14:11:58.965Z,2.20
2018-07-15T14:14:27.339Z,2.80
2018-07-15T14:16:55.701Z,3.27
2018-07-15T14:19:24.070Z,2.17
2018-07-15T14:23:21.933Z,2.20
2018-07-15T14:25:50.312Z,3.33
2018-07-15T14:28:18.752Z,3.30
2018-07-15T14:30:47.106Z,2.47
2018-07-15T14:33:15.229Z,2.40
2018-07-15T14:35:43.658Z,1.97
2018-07-15T14:38:12.265Z,2.37
2018-07-15T14:40:40.691Z,2.10
2018-07-15T14:43:09.170Z,2.07
2018-07-15T14:45:41.602Z,3.20
2018-07-15T14:48:09.684Z,1.90
2018-07-15T14:50:37.820Z,1.60
2018-07-15T14:53:06.297Z,2.10
2018-07-15T14:55:34.931Z,2.50
2018-07-15T14:58:03.345Z,2.27
2018-07-15T15:00:32.064Z,2.13
2018-07-15T15:03:00.458Z,3.47
2018-07-15T15:05:29.156Z,2.00
2018-07-15T15:07:57.518Z,1.83
2018-07-15T15:10:26.468Z,2.20
2018-07-15T15:12:54.874Z,3.27
2018-07-15T15:15:23.390Z,3.30
2018-07-15T15:17:51.718Z,2.37
2018-07-15T15:20:20.089Z,4.60
2018-07-15T15:22:48.142Z,3.10
2018-07-15T15:25:16.989Z,1.80
2018-07-15T15:27:45.366Z,2.60
2018-07-15T15:30:13.844Z,2.17
2018-07-15T15:32:42.225Z,1.97
2018-07-15T15:35:10.580Z,2.40
2018-07-15T15:37:38.965Z,2.90
2018-07-15T15:40:07.419Z,2.23
2018-07-15T15:42:35.766Z,1.80
2018-07-15T15:45:04.760Z,1.73
2018-07-15T15:47:33.937Z,3.50
2018-07-15T15:50:02.592Z,3.30
2018-07-15T15:52:31.446Z,2.00
2018-07-15T15:55:00.154Z,2.00
2018-07-15T15:57:28.808Z,7.47
2018-07-15T15:59:57.191Z,3.37
2018-07-15T16:02:25.607Z,3.10
2018-07-15T16:04:54.017Z,1.70
2018-07-15T16:07:22.465Z,1.60
2018-07-15T16:09:51.102Z,2.27
2018-07-15T16:12:19.474Z,4.10
2018-07-15T16:14:47.836Z,6.57
2018-07-15T16:17:16.201Z,2.50
2018-07-15T16:19:44.563Z,2.97
2018-07-15T16:22:12.661Z,3.47
2018-07-15T16:24:41.094Z,2.93
2018-07-15T16:27:09.436Z,2.40
2018-07-15T16:29:37.851Z,3.37
2018-07-15T16:32:06.496Z,2.20
2018-07-15T16:34:34.935Z,2.20
2018-07-15T16:37:03.359Z,1.60
2018-07-15T16:39:31.798Z,1.70
2018-07-15T16:42:00.213Z,1.90
2018-07-15T16:44:28.640Z,4.87
2018-07-15T16:46:57.021Z,2.03
2018-07-15T16:49:25.422Z,2.67
2018-07-15T16:51:53.763Z,2.10
2018-07-15T16:54:22.133Z,2.50
2018-07-15T16:56:50.560Z,2.33
2018-07-15T16:59:18.967Z,4.77
2018-07-15T17:01:47.348Z,6.07
2018-07-15T17:04:15.752Z,2.03
2018-07-15T17:06:44.186Z,4.27
2018-07-15T17:09:12.603Z,5.20
2018-07-15T17:11:41.283Z,1.87
2018-07-15T17:14:09.944Z,3.20
2018-07-15T17:16:38.417Z,2.37
2018-07-15T17:19:06.798Z,7.67
2018-07-15T17:21:35.140Z,2.20
2018-07-15T17:24:03.538Z,1.87
2018-07-15T17:26:32.169Z,2.03
2018-07-15T17:29:00.542Z,3.23
2018-07-15T17:31:28.902Z,1.97
2018-07-15T17:33:57.313Z,1.73
2018-07-15T17:36:25.739Z,1.70
2018-07-15T17:38:54.148Z,2.47
2018-07-15T17:41:22.590Z,2.10
2018-07-15T17:43:50.779Z,2.53
2018-07-15T17:46:19.435Z,2.50
2018-07-15T17:48:47.625Z,2.10
2018-07-15T17:51:16.773Z,2.47
2018-07-15T17:53:45.190Z,2.33
2018-07-15T17:56:13.579Z,1.97
2018-07-15T17:58:41.985Z,1.70
2018-07-15T18:01:10.057Z,2.00
2018-07-15T18:03:38.413Z,1.70
2018-07-15T18:06:06.857Z,1.70
2018-07-15T18:08:35.290Z,3.73
2018-07-15T18:11:03.744Z,2.13
2018-07-15T18:13:32.170Z,1.87
2018-07-15T18:16:00.595Z,1.93
2018-07-15T18:18:29.330Z,2.10
2018-07-15T18:20:57.724Z,2.10
2018-07-15T18:23:26.109Z,2.23
2018-07-15T18:25:54.544Z,1.93
2018-07-15T18:28:22.659Z,3.03
2018-07-15T18:30:51.352Z,3.40
2018-07-15T18:33:19.931Z,2.27
2018-07-15T18:35:48.348Z,2.13
2018-07-15T18:38:16.992Z,2.43
2018-07-15T18:40:45.386Z,4.47
2018-07-15T18:43:14.053Z,1.70
2018-07-15T18:45:42.411Z,2.97
2018-07-15T18:48:11.057Z,1.50
2018-07-15T18:50:39.496Z,2.27
2018-07-15T18:53:07.899Z,2.43
2018-07-15T18:55:36.281Z,1.80
2018-07-15T18:58:04.940Z,2.13
2018-07-15T19:00:33.612Z,1.60
2018-07-15T19:03:02.670Z,2.77
2018-07-15T19:05:31.071Z,2.23
2018-07-15T19:07:59.491Z,2.57
2018-07-15T19:10:27.939Z,1.70
2018-07-15T19:12:56.314Z,1.93
2018-07-15T19:15:24.805Z,3.43
2018-07-15T19:17:53.586Z,2.00
2018-07-15T19:20:21.958Z,3.50
2018-07-15T19:22:50.310Z,2.07
2018-07-15T19:25:19.324Z,2.20
2018-07-15T19:27:47.976Z,2.80
2018-07-15T19:30:16.331Z,2.77
2018-07-15T19:32:44.750Z,1.70
2018-07-15T19:35:13.365Z,1.57
2018-07-15T19:37:41.783Z,1.70
2018-07-15T19:40:10.184Z,2.00
2018-07-15T19:42:38.565Z,2.07
2018-07-15T19:45:07.277Z,3.23
2018-07-15T19:47:35.676Z,2.77
2018-07-15T19:50:04.115Z,3.37
2018-07-15T19:52:32.609Z,3.10
2018-07-15T19:55:01.015Z,3.30
2018-07-15T19:57:29.725Z,3.40
2018-07-15T19:59:58.097Z,2.87
2018-07-15T20:02:26.556Z,3.20
2018-07-15T20:04:54.901Z,1.93
2018-07-15T20:07:23.391Z,2.53
2018-07-15T20:09:51.661Z,2.73
2018-07-15T20:12:20.094Z,3.07
2018-07-15T20:14:48.459Z,1.70
2018-07-15T20:17:16.922Z,3.13
2018-07-15T20:19:45.586Z,1.60
2018-07-15T20:22:13.964Z,2.23
2018-07-15T20:24:42.387Z,2.03
2018-07-15T20:27:11.362Z,4.87
2018-07-15T20:29:39.735Z,2.17
2018-07-15T20:32:07.829Z,4.00
2018-07-15T20:34:36.201Z,3.00
2018-07-15T20:37:04.594Z,2.70
2018-07-15T20:39:33.242Z,2.27
2018-07-15T20:42:02.287Z,4.20
2018-07-15T20:44:31.840Z,2.93
2018-07-15T20:47:00.212Z,3.70
2018-07-15T20:49:28.644Z,3.50
2018-07-15T20:51:57.151Z,2.83
2018-07-15T20:54:26.103Z,2.80
2018-07-15T20:56:54.630Z,3.30
2018-07-15T20:59:23.049Z,1.97
2018-07-15T21:01:52.069Z,4.00
2018-07-15T21:04:20.536Z,2.23
2018-07-15T21:06:48.915Z,3.33
2018-07-15T21:09:18.089Z,3.67
2018-07-15T21:11:46.584Z,2.67
2018-07-15T21:14:14.943Z,5.43
2018-07-15T21:16:43.787Z,4.37
2018-07-15T21:19:12.143Z,2.20
2018-07-15T21:21:40.552Z,1.93
2018-07-15T21:24:08.886Z,2.33
2018-07-15T21:26:37.220Z,2.53
2018-07-15T21:29:05.601Z,2.93
2018-07-15T21:31:33.988Z,4.63
2018-07-15T21:34:02.310Z,2.23
2018-07-15T21:36:30.677Z,2.57
2018-07-15T21:38:59.048Z,2.37
2018-07-15T21:41:27.790Z,3.43
2018-07-15T21:43:56.187Z,3.80
2018-07-15T21:46:24.579Z,3.03
2018-07-15T21:48:53.010Z,4.47
2018-07-15T21:51:21.126Z,2.17
2018-07-15T21:53:49.653Z,2.93
2018-07-15T21:56:17.992Z,2.90
2018-07-15T21:58:46.443Z,3.07
2018-07-15T22:01:14.888Z,3.50
2018-07-15T22:03:43.886Z,3.60
2018-07-15T22:06:23.738Z,4.53
2018-07-15T22:09:03.689Z,4.50
2018-07-15T22:11:32.117Z,10.97
2018-07-15T22:14:00.694Z,4.33
2018-07-15T22:16:29.016Z,4.03
2018-07-15T22:18:57.541Z,4.17
2018-07-15T22:21:25.619Z,4.13
2018-07-15T22:23:53.759Z,4.77
2018-07-15T22:26:22.183Z,6.57
2018-07-15T22:28:50.590Z,4.50
2018-07-15T22:31:19.024Z,4.23
2018-07-15T22:33:47.364Z,4.27
2018-07-15T22:36:15.865Z,4.03
2018-07-15T22:38:44.230Z,5.07
2018-07-15T22:41:12.549Z,7.87
2018-07-15T22:43:40.902Z,4.23
2018-07-15T22:46:09.977Z,8.33
2018-07-15T22:48:38.445Z,5.37
2018-07-15T22:51:06.824Z,6.30
2018-07-15T22:53:35.224Z,4.73
2018-07-15T22:56:03.592Z,6.23
2018-07-15T22:58:32.002Z,6.93
2018-07-15T23:01:00.579Z,5.60
2018-07-15T23:03:29.294Z,4.93
2018-07-15T23:06:09.104Z,5.63
2018-07-15T23:08:37.482Z,5.90
2018-07-15T23:11:05.854Z,5.77
2018-07-15T23:13:34.244Z,4.83
2018-07-15T23:16:02.714Z,5.20
2018-07-15T23:18:31.141Z,5.93
2018-07-15T23:20:59.863Z,6.70
2018-07-15T23:23:28.543Z,8.23
2018-07-15T23:25:56.918Z,7.33
2018-07-15T23:28:25.251Z,6.23
2018-07-15T23:30:53.676Z,9.17
2018-07-15T23:33:22.040Z,10.50
2018-07-15T23:35:50.432Z,6.67
2018-07-15T23:38:18.820Z,8.33
2018-07-15T23:40:47.149Z,10.70
2018-07-15T23:43:15.575Z,5.83
2018-07-15T23:45:43.928Z,6.80
2018-07-15T23:48:12.257Z,6.20
2018-07-15T23:50:41.936Z,6.97
2018-07-15T23:53:10.310Z,6.50
2018-07-15T23:55:38.801Z,6.37
2018-07-15T23:58:07.317Z,6.10
